KSLE/SLE METAR and TAF weather

Enter ICAO airport designator
Station Type Date Time Source
KSLE METAR 2019/02/18 03:56 UTC NOAA

KSLE 180356Z 24003KT 10SM SCT043 02/M01 A3029 RMK AO2 SLP258 T00171006


Station Type Date Time Source
KSLE Decoded METAR 2019/02/18 03:56 UTC NOAA

SALEM MCNARY FIELD, OR, United States (KSLE) 44-54N 123-00W 59M
Feb 17, 2019 - 10:56 PM EST / 2019.02.18 0356 UTC
Wind: from the WSW (240 degrees) at 3 MPH (3 KT):0
Visibility: 10 mile(s):0
Sky conditions: partly cloudy
Temperature: 35.1 F (1.7 C)
Dew Point: 30.9 F (-0.6 C)
Relative Humidity: 84%
Pressure (altimeter): 30.29 in. Hg (1025 hPa)
ob: KSLE 180356Z 24003KT 10SM SCT043 02/M01 A3029 RMK AO2 SLP258 T00171006
cycle: 4

Station Type Date Time Source
KSLE TAF 2019/02/17 21:57 UTC NOAA

TAF
AMD KSLE 172055Z 1721/1818 VRB03KT P6SM OVC015
FM172200 36005KT P6SM SCT015
FM180600 VRB03KT P6SM BKN040
FM181100 14002KT P6SM OVC015


Example: see airport list